Time;durP1;ratioP1;P1;durP2;ratioP2;P2;SDS_P1;SDS_P2;PMS_P1;PMS_P2;Temp;Humidity;BMP_temperature;BMP_pressure;BME280_temperature;BME280_humidity;BME280_pressure;Samples;Min_cycle;Max_cycle;Signal;HPM_P1;HPM_P2
2022/09/02 00:00:07;;;;;;;4.82;3.60;;;;;;;19.46;55.11;100635.16;4098355;29;20046;-62
2022/09/02 00:02:12;;;;;;;3.88;3.15;;;;;;;19.43;55.54;100635.22;4097194;28;20050;-62
2022/09/02 00:04:18;;;;;;;7.80;3.42;;;;;;;19.42;55.41;100638.78;4090841;28;20125;-62
2022/09/02 00:06:22;;;;;;;6.38;3.92;;;;;;;19.35;55.35;100623.97;4096613;28;20046;-61
2022/09/02 00:08:25;;;;;;;5.78;4.22;;;;;;;19.34;55.48;100636.25;4094652;28;20325;-62
2022/09/02 00:10:28;;;;;;;8.00;3.60;;;;;;;19.35;55.41;100626.59;4095623;28;20047;-61
2022/09/02 00:12:31;;;;;;;4.75;3.40;;;;;;;19.34;55.28;100631.00;4098069;28;20042;-61
2022/09/02 00:14:36;;;;;;;4.72;4.10;;;;;;;19.36;55.22;100630.97;4096060;28;20036;-62
2022/09/02 00:16:41;;;;;;;3.72;3.00;;;;;;;19.33;55.60;100631.91;4098123;29;20150;-61
2022/09/02 00:18:47;;;;;;;;;;;;;;;19.20;55.69;100619.84;4097668;28;20031;-62
2022/09/02 00:20:50;;;;;;;4.88;3.30;;;;;;;19.25;55.56;100625.06;4097514;28;19922;-62
2022/09/02 00:22:52;;;;;;;5.10;3.05;;;;;;;19.26;55.30;100632.03;4097304;28;20404;-61
2022/09/02 00:24:55;;;;;;;7.20;3.33;;;;;;;19.29;55.21;100629.34;4111655;28;20133;-61
2022/09/02 00:26:58;;;;;;;4.65;3.30;;;;;;;19.27;55.15;100629.38;4097564;28;20035;-61
2022/09/02 00:29:01;;;;;;;4.85;3.20;;;;;;;19.27;55.07;100624.09;4110851;28;20057;-62
2022/09/02 00:31:05;;;;;;;4.85;3.33;;;;;;;19.27;54.70;100612.69;4126247;28;20034;-61
2022/09/02 00:33:08;;;;;;;8.53;4.07;;;;;;;19.24;54.67;100620.66;4113054;28;20047;-62
2022/09/02 00:35:13;;;;;;;4.40;3.20;;;;;;;19.22;54.74;100619.84;4096261;28;20038;-61
2022/09/02 00:37:16;;;;;;;6.22;3.55;;;;;;;19.18;54.53;100617.22;4096087;28;20118;-61
2022/09/02 00:39:19;;;;;;;4.35;2.90;;;;;;;19.16;55.06;100623.44;4095624;28;20101;-62
2022/09/02 00:41:26;;;;;;;6.32;3.70;;;;;;;19.16;54.68;100619.03;4123162;28;20077;-62
2022/09/02 00:43:42;;;;;;;7.28;3.55;;;;;;;19.19;54.72;100613.72;4095205;28;20039;-62
2022/09/02 00:45:45;;;;;;;4.78;4.07;;;;;;;19.15;54.47;100609.38;4126561;28;20053;-62
2022/09/02 00:47:50;;;;;;;7.70;3.55;;;;;;;19.14;54.65;100610.31;4128432;28;20038;-62
2022/09/02 00:49:54;;;;;;;4.47;2.80;;;;;;;19.16;54.50;100605.88;4097237;29;20054;-62
2022/09/02 00:52:04;;;;;;;5.65;3.10;;;;;;;19.15;54.24;100609.38;4095836;28;20050;-62
2022/09/02 00:54:07;;;;;;;5.50;2.67;;;;;;;19.12;54.82;100606.81;4121391;28;20125;-62
2022/09/02 00:56:14;;;;;;;5.63;3.08;;;;;;;19.13;55.16;100607.69;4088883;28;20304;-62
2022/09/02 00:58:20;;;;;;;4.13;2.55;;;;;;;19.14;55.15;100599.78;4125926;28;20035;-62
2022/09/02 01:00:26;;;;;;;4.78;3.47;;;;;;;19.13;55.20;100599.78;4127564;28;20052;-62
2022/09/02 01:02:39;;;;;;;5.13;3.17;;;;;;;19.10;54.82;100603.34;4097354;29;20122;-62
2022/09/02 01:04:41;;;;;;;5.05;3.17;;;;;;;19.07;54.99;100594.63;4110904;28;20105;-62
2022/09/02 01:06:45;;;;;;;4.18;2.90;;;;;;;19.07;54.91;100607.78;4093892;28;20039;-62
2022/09/02 01:08:55;;;;;;;4.47;2.95;;;;;;;19.07;54.91;100608.69;4097441;28;20078;-62
2022/09/02 01:10:59;;;;;;;3.13;2.65;;;;;;;19.00;55.10;100602.66;4089482;28;20039;-62
2022/09/02 01:13:07;;;;;;;3.53;2.20;;;;;;;19.00;54.46;100601.78;4121995;28;20112;-62
2022/09/02 01:15:12;;;;;;;4.20;3.00;;;;;;;18.95;54.51;100604.50;4091968;28;20047;-62
2022/09/02 01:17:16;;;;;;;5.43;2.67;;;;;;;18.92;54.75;100603.69;4096640;28;20124;-62
2022/09/02 01:19:22;;;;;;;3.63;2.42;;;;;;;18.90;54.77;100611.63;4096834;28;20038;-62
2022/09/02 01:21:25;;;;;;;6.80;3.10;;;;;;;18.88;54.81;100612.53;4098806;28;20040;-62
2022/09/02 01:23:32;;;;;;;6.05;3.10;;;;;;;18.84;54.76;100604.66;4126063;28;20030;-62
2022/09/02 01:25:37;;;;;;;6.85;2.60;;;;;;;18.82;54.22;100603.81;4097521;28;20088;-62
2022/09/02 01:27:41;;;;;;;5.75;2.88;;;;;;;18.77;54.71;100605.66;4131156;28;20053;-62
2022/09/02 01:29:50;;;;;;;7.28;4.32;;;;;;;18.77;54.27;100605.66;4113626;28;20134;-62
2022/09/02 01:31:53;;;;;;;5.57;2.83;;;;;;;18.74;55.09;100605.72;4128146;28;20034;-62
2022/09/02 01:33:56;;;;;;;4.90;2.95;;;;;;;18.71;55.13;100600.50;4098681;28;20632;-62
2022/09/02 01:36:01;;;;;;;5.05;2.50;;;;;;;18.68;55.56;100600.56;4111258;28;20058;-62
2022/09/02 01:38:05;;;;;;;3.63;2.58;;;;;;;18.70;56.00;100603.16;4100401;28;20045;-61
2022/09/02 01:40:14;;;;;;;5.53;2.63;;;;;;;18.67;56.49;100601.44;4096692;28;20067;-62
2022/09/02 01:42:20;;;;;;;6.28;2.80;;;;;;;18.64;56.49;100599.72;4107017;28;20039;-61
2022/09/02 01:44:26;;;;;;;4.23;2.70;;;;;;;18.59;56.88;100596.31;4110984;28;20046;-62
2022/09/02 01:46:29;;;;;;;5.35;3.13;;;;;;;18.56;56.41;100593.75;4109117;28;20803;-62
2022/09/02 01:48:32;;;;;;;5.00;2.88;;;;;;;18.56;56.57;100603.38;4128409;28;20046;-61
2022/09/02 01:50:37;;;;;;;4.05;2.50;;;;;;;18.51;56.65;100597.34;4096173;28;20518;-61
2022/09/02 01:52:46;;;;;;;3.72;2.83;;;;;;;18.44;56.63;100602.72;4094990;28;20066;-61
2022/09/02 01:54:50;;;;;;;3.85;2.53;;;;;;;18.43;56.76;100600.97;4091702;28;20588;-61
2022/09/02 01:56:54;;;;;;;6.00;2.90;;;;;;;18.46;56.79;100605.31;4098314;28;20051;-61
2022/09/02 01:58:58;;;;;;;4.05;2.88;;;;;;;18.45;56.86;100599.16;4094361;28;20046;-61
2022/09/02 02:01:02;;;;;;;5.20;2.83;;;;;;;18.45;56.76;100603.56;4094992;28;20031;-62
2022/09/02 02:03:05;;;;;;;5.40;2.70;;;;;;;18.41;57.07;100602.75;4130170;28;20499;-62
2022/09/02 02:05:09;;;;;;;4.20;2.90;;;;;;;18.40;57.06;100603.63;4127993;28;20046;-62
2022/09/02 02:07:16;;;;;;;4.63;2.92;;;;;;;18.37;56.56;100603.69;4098883;28;20036;-62
2022/09/02 02:09:19;;;;;;;5.22;2.70;;;;;;;18.39;56.96;100604.53;4099397;28;20042;-62
2022/09/02 02:11:25;;;;;;;3.58;2.67;;;;;;;18.41;56.96;100597.50;4096172;28;20256;-62
2022/09/02 02:13:35;;;;;;;3.47;2.75;;;;;;;18.36;57.01;100603.72;4091158;28;20141;-62
2022/09/02 02:15:39;;;;;;;5.28;2.60;;;;;;;18.34;57.05;100598.47;4093949;28;20501;-61
2022/09/02 02:17:42;;;;;;;5.43;2.92;;;;;;;18.33;56.55;100598.50;4097904;28;20102;-62
2022/09/02 02:19:45;;;;;;;3.72;2.88;;;;;;;18.31;56.66;100595.88;4094257;28;20129;-62
2022/09/02 02:21:49;;;;;;;5.45;2.85;;;;;;;18.29;56.35;100595.03;4100244;28;20062;-62
2022/09/02 02:23:52;;;;;;;3.40;2.60;;;;;;;18.29;56.22;100602.94;4093098;28;20110;-61
2022/09/02 02:25:55;;;;;;;3.95;2.53;;;;;;;18.29;56.43;100603.78;4094487;28;20042;-62
2022/09/02 02:27:58;;;;;;;5.30;2.60;;;;;;;18.26;56.41;100598.56;4110352;28;20619;-62
2022/09/02 02:30:05;;;;;;;6.65;2.85;;;;;;;18.23;56.08;100603.03;4113397;28;20540;-62
2022/09/02 02:32:08;;;;;;;5.63;2.92;;;;;;;18.22;55.72;100601.28;4096528;28;20032;-62
2022/09/02 02:34:13;;;;;;;3.35;2.40;;;;;;;18.22;55.30;100596.88;4093193;28;20038;-62
2022/09/02 02:36:18;;;;;;;5.35;2.00;;;;;;;18.20;55.31;100601.31;4097439;28;20046;-62
2022/09/02 02:38:21;;;;;;;4.78;2.13;;;;;;;18.17;55.56;100597.88;4112560;28;20077;-62
2022/09/02 02:40:25;;;;;;;3.45;2.22;;;;;;;18.18;55.51;100604.84;4095466;28;20046;-62
2022/09/02 02:42:28;;;;;;;4.65;2.50;;;;;;;18.18;55.69;100602.22;4097967;28;20073;-62
2022/09/02 02:44:31;;;;;;;4.53;2.33;;;;;;;18.18;55.73;100604.84;4095914;28;20041;-62
2022/09/02 02:46:36;;;;;;;3.85;2.78;;;;;;;18.18;55.41;100594.31;4098712;29;20059;-62
2022/09/02 02:48:39;;;;;;;3.95;2.42;;;;;;;18.12;55.42;100595.28;4094408;28;20063;-62
2022/09/02 02:50:43;;;;;;;3.28;2.40;;;;;;;18.10;55.65;100600.56;4099701;28;20113;-62
2022/09/02 02:52:47;;;;;;;4.55;2.45;;;;;;;18.12;55.59;100597.91;4097970;28;20039;-62
2022/09/02 02:54:51;;;;;;;3.42;2.30;;;;;;;18.08;55.49;100591.84;4096279;28;20042;-62
2022/09/02 02:56:54;;;;;;;4.47;2.65;;;;;;;18.04;55.76;100592.78;4095949;28;20043;-62
2022/09/02 02:59:02;;;;;;;5.38;2.75;;;;;;;18.00;55.72;100596.34;4126438;28;20038;-62
2022/09/02 03:01:06;;;;;;;4.38;2.25;;;;;;;17.98;55.81;100595.50;4092946;28;20051;-62
2022/09/02 03:03:12;;;;;;;3.75;2.50;;;;;;;17.99;55.60;100597.25;4106782;28;20046;-62
2022/09/02 03:05:17;;;;;;;4.03;2.78;;;;;;;17.95;56.09;100601.66;4112271;28;20130;-62
2022/09/02 03:07:21;;;;;;;4.78;3.03;;;;;;;17.92;55.57;100587.69;4122247;28;20101;-62
2022/09/02 03:09:24;;;;;;;4.53;2.80;;;;;;;17.89;55.54;100590.34;4096529;28;20039;-61
2022/09/02 03:11:27;;;;;;;5.00;3.00;;;;;;;17.91;55.59;100592.06;4079894;29;20043;-61
2022/09/02 03:13:33;;;;;;;3.97;2.70;;;;;;;17.91;55.61;100593.84;4092291;28;20031;-62
2022/09/02 03:15:39;;;;;;;3.58;2.67;;;;;;;17.94;55.92;100599.06;4090924;28;20382;-62
2022/09/02 03:17:42;;;;;;;3.58;2.38;;;;;;;17.90;56.25;100595.63;4096685;28;20624;-62
2022/09/02 03:19:47;;;;;;;3.97;2.67;;;;;;;17.90;56.60;100597.34;4080134;29;20044;-62
2022/09/02 03:21:50;;;;;;;3.55;2.53;;;;;;;17.88;57.12;100593.84;4090957;28;20498;-62
2022/09/02 03:23:53;;;;;;;5.07;2.70;;;;;;;17.87;57.03;100590.38;4074730;29;20374;-62
2022/09/02 03:25:55;;;;;;;5.18;2.75;;;;;;;17.78;57.71;100596.63;4106104;28;20055;-62
2022/09/02 03:28:07;;;;;;;7.10;3.35;;;;;;;17.67;58.69;100598.53;4125111;28;20049;-62
2022/09/02 03:30:13;;;;;;;4.77;2.63;;;;;;;17.68;58.57;100597.59;4097063;28;20090;-62
2022/09/02 03:32:16;;;;;;;6.55;3.03;;;;;;;17.68;58.90;100597.59;4091816;28;20302;-62
2022/09/02 03:34:19;;;;;;;4.97;3.20;;;;;;;17.67;58.86;100598.53;4125314;28;20069;-62
2022/09/02 03:36:27;;;;;;;5.38;3.20;;;;;;;17.67;59.58;100597.63;4109804;28;20050;-62
2022/09/02 03:38:31;;;;;;;3.80;2.83;;;;;;;17.66;59.75;100596.78;4095871;28;20061;-61
2022/09/02 03:40:34;;;;;;;5.72;3.13;;;;;;;17.58;60.22;100593.34;4097137;28;20039;-62
2022/09/02 03:42:38;;;;;;;7.07;3.40;;;;;;;17.53;60.53;100590.78;4129541;28;20117;-61
2022/09/02 03:44:42;;;;;;;9.10;3.75;;;;;;;17.48;60.67;100591.72;4095266;28;20051;-62
2022/09/02 03:46:45;;;;;;;7.57;3.78;;;;;;;17.47;60.77;100598.75;4095230;28;20066;-62
2022/09/02 03:48:50;;;;;;;6.28;3.50;;;;;;;17.47;60.72;100595.28;4096094;28;20046;-62
2022/09/02 03:50:53;;;;;;;5.25;3.83;;;;;;;17.41;61.04;100591.81;4094381;28;20074;-62
2022/09/02 03:52:58;;;;;;;5.55;3.78;;;;;;;17.42;61.21;100588.31;4125001;28;20134;-62
2022/09/02 03:55:03;;;;;;;6.60;4.07;;;;;;;17.32;61.15;100591.94;4125011;28;20064;-62
2022/09/02 03:57:09;;;;;;;8.50;3.90;;;;;;;17.35;61.40;100586.63;4127830;28;20038;-62
2022/09/02 03:59:12;;;;;;;8.03;4.27;;;;;;;17.35;61.02;100591.88;4096827;28;20066;-62
2022/09/02 04:01:17;;;;;;;6.85;4.47;;;;;;;17.34;61.06;100586.66;4095538;28;20295;-62
2022/09/02 04:03:20;;;;;;;;;;;;;;;17.15;61.42;100588.63;4127694;28;20539;-62
2022/09/02 04:05:24;;;;;;;6.18;4.03;;;;;;;17.18;61.22;100583.34;4093137;28;20006;-62
2022/09/02 04:07:29;;;;;;;6.93;4.18;;;;;;;17.13;61.46;100585.13;4110920;28;20142;-62
2022/09/02 04:09:33;;;;;;;7.68;4.65;;;;;;;17.18;61.24;100581.56;4095833;28;20035;-62
2022/09/02 04:11:41;;;;;;;;;;;;;;;17.03;61.66;100587.00;4096741;28;20050;-62
2022/09/02 04:13:45;;;;;;;5.75;4.38;;;;;;;17.06;61.62;100585.19;4124969;28;19972;-62
2022/09/02 04:15:50;;;;;;;5.55;3.95;;;;;;;17.09;61.60;100585.16;4094749;28;20054;-62
2022/09/02 04:21:34;;;;;;;5.75;4.07;;;;;;;16.90;61.78;100589.72;4093867;28;20520;-62
2022/09/02 04:23:38;;;;;;;6.35;4.38;;;;;;;16.87;61.60;100597.66;4126042;28;20035;-62
2022/09/02 04:25:44;;;;;;;6.07;4.07;;;;;;;16.70;62.10;100592.50;4113029;28;20042;-62
2022/09/02 04:27:49;;;;;;;6.80;4.85;;;;;;;16.63;62.37;100596.09;4110588;28;20476;-61
2022/09/02 04:29:52;;;;;;;6.00;4.22;;;;;;;16.53;62.22;100590.03;4092704;28;20047;-61
2022/09/02 04:31:56;;;;;;;7.28;5.22;;;;;;;16.55;62.12;100596.13;4127828;28;20038;-61
2022/09/02 04:33:59;;;;;;;8.55;4.63;;;;;;;16.56;62.28;100597.03;4124532;28;20042;-62
2022/09/02 04:36:05;;;;;;;6.15;4.82;;;;;;;16.47;62.19;100597.09;4092606;28;20050;-62
2022/09/02 04:38:10;;;;;;;7.85;4.72;;;;;;;16.47;62.09;100592.72;4118664;28;20112;-62
2022/09/02 04:40:13;;;;;;;6.80;4.50;;;;;;;16.45;62.55;100589.22;4092817;28;20039;-62
2022/09/02 04:42:17;;;;;;;7.82;5.43;;;;;;;16.53;62.24;100597.06;4107131;28;20545;-62
2022/09/02 04:44:20;;;;;;;;;;;;;;;16.46;62.44;100598.00;4092188;29;20497;-62
2022/09/02 04:46:24;;;;;;;8.23;4.85;;;;;;;16.53;62.28;100591.81;4091492;29;20356;-62
2022/09/02 04:48:40;;;;;;;6.88;5.18;;;;;;;16.51;62.11;100601.44;4118732;28;20125;-61
2022/09/02 04:50:43;;;;;;;9.10;4.95;;;;;;;16.47;62.00;100602.34;4091493;29;20183;-62
2022/09/02 04:52:47;;;;;;;7.43;5.63;;;;;;;16.51;62.29;100597.03;4121790;28;20079;-61
2022/09/02 04:54:50;;;;;;;6.55;5.18;;;;;;;16.53;61.93;100600.53;4105039;28;20137;-62
2022/09/02 04:56:53;;;;;;;7.85;4.55;;;;;;;16.54;61.82;100604.91;4078374;29;20515;-62
2022/09/02 04:58:59;;;;;;;9.05;4.53;;;;;;;16.56;61.82;100602.28;4093130;28;20047;-61
2022/09/02 05:01:06;;;;;;;7.35;5.22;;;;;;;16.60;62.23;100597.84;4123025;28;20026;-61
2022/09/02 05:03:10;;;;;;;6.65;4.88;;;;;;;16.58;61.75;100605.75;4125704;28;20048;-61
2022/09/02 05:05:16;;;;;;;15.10;6.70;;;;;;;16.60;61.66;100609.22;4094416;29;20042;-62
2022/09/02 05:07:19;;;;;;;8.05;5.80;;;;;;;16.45;61.99;100609.34;4124788;28;21710;-62
2022/09/02 05:09:23;;;;;;;7.82;5.50;;;;;;;16.34;62.46;100599.81;4109315;28;20527;-62
2022/09/02 05:11:32;;;;;;;15.93;6.53;;;;;;;16.34;62.15;100596.31;4095569;28;20466;-62
2022/09/02 05:13:36;;;;;;;9.95;5.80;;;;;;;16.39;62.06;100605.88;4126708;28;20042;-62
2022/09/02 05:15:42;;;;;;;8.88;5.05;;;;;;;16.52;61.79;100600.56;4107193;28;20039;-62
2022/09/02 05:17:45;;;;;;;7.50;4.70;;;;;;;16.56;61.97;100604.91;4109727;28;20042;-62
2022/09/02 05:19:48;;;;;;;8.60;5.35;;;;;;;16.60;61.41;100598.72;4095369;28;20047;-61
2022/09/02 05:21:54;;;;;;;7.22;5.15;;;;;;;16.50;61.65;100602.31;4093385;28;20039;-62
2022/09/02 05:24:09;;;;;;;9.93;4.93;;;;;;;16.42;61.99;100609.38;4123669;28;20793;-61
2022/09/02 05:26:13;;;;;;;8.00;4.65;;;;;;;16.43;62.33;100612.00;4107801;28;20324;-62
2022/09/02 05:28:17;;;;;;;6.85;4.47;;;;;;;16.47;62.04;100604.97;4074438;29;20142;-62
2022/09/02 05:30:21;;;;;;;9.70;5.22;;;;;;;16.46;62.23;100604.09;4089594;28;20045;-61
2022/09/02 05:32:26;;;;;;;8.98;4.90;;;;;;;16.53;62.29;100610.19;4123157;28;20049;-62
2022/09/02 05:34:29;;;;;;;7.45;5.05;;;;;;;16.58;61.91;100611.00;4107882;28;20551;-62
2022/09/02 05:36:34;;;;;;;9.43;5.30;;;;;;;16.61;62.17;100604.84;4077483;29;20059;-62
2022/09/02 05:38:38;;;;;;;9.17;4.80;;;;;;;16.58;62.40;100605.75;4107383;28;20053;-62
2022/09/02 05:40:41;;;;;;;6.93;4.75;;;;;;;16.56;62.55;100603.13;4119047;28;20282;-62
2022/09/02 05:42:44;;;;;;;7.78;4.18;;;;;;;16.68;63.11;100610.03;4124597;28;20042;-62
2022/09/02 05:44:50;;;;;;;9.15;4.38;;;;;;;17.24;63.17;100599.03;4104828;28;20054;-62
2022/09/02 05:46:56;;;;;;;7.68;4.05;;;;;;;17.77;62.14;100601.88;4122435;28;20050;-62
2022/09/02 05:49:06;;;;;;;5.70;4.07;;;;;;;18.17;60.44;100609.25;4123618;28;20535;-62
2022/09/02 05:51:14;;;;;;;10.52;3.63;;;;;;;18.47;59.40;100601.75;4121595;28;21215;-62
2022/09/02 05:53:17;;;;;;;7.85;4.13;;;;;;;18.69;58.86;100598.78;4107722;28;20038;-62
2022/09/02 05:55:20;;;;;;;7.05;3.97;;;;;;;18.82;57.73;100593.28;4106738;28;20137;-62
2022/09/02 05:57:24;;;;;;;5.60;3.47;;;;;;;18.83;57.54;100600.28;4091339;28;20525;-62
2022/09/02 05:59:41;;;;;;;;;;;;;;;18.78;57.13;100590.75;4104601;28;20098;-62
2022/09/02 06:01:47;;;;;;;10.18;3.72;;;;;;;18.87;56.97;100601.13;4123360;28;19957;-62
2022/09/02 06:03:51;;;;;;;8.63;3.90;;;;;;;18.95;57.04;100598.34;4092575;28;20126;-62
2022/09/02 06:05:57;;;;;;;8.40;4.22;;;;;;;19.05;57.31;100593.78;4089316;29;20489;-62
2022/09/02 06:08:08;;;;;;;9.20;4.72;;;;;;;19.12;57.22;100588.38;4109156;28;20457;-62
2022/09/02 06:10:12;;;;;;;5.78;3.85;;;;;;;19.21;56.93;100594.38;4097921;28;20097;-62
2022/09/02 06:12:19;;;;;;;7.53;3.70;;;;;;;19.24;56.22;100592.53;4096801;29;20078;-62
2022/09/02 06:14:24;;;;;;;6.47;4.10;;;;;;;19.30;55.54;100594.19;4097681;28;20709;-62
2022/09/02 06:16:29;;;;;;;9.38;4.28;;;;;;;19.28;55.82;100591.56;4095730;29;20106;-62
2022/09/02 06:18:33;;;;;;;8.18;4.53;;;;;;;19.31;55.40;100598.56;4129123;28;20105;-62
2022/09/02 06:20:39;;;;;;;9.35;4.75;;;;;;;19.35;55.10;100595.81;4112117;28;20126;-62
2022/09/02 06:22:47;;;;;;;12.27;4.70;;;;;;;19.40;54.58;100589.59;4095300;29;20047;-62
2022/09/02 06:24:51;;;;;;;10.10;4.82;;;;;;;19.43;54.72;100594.81;4111344;28;20090;-63
2022/09/02 06:26:59;;;;;;;15.05;5.35;;;;;;;19.41;54.22;100592.19;4096590;28;20043;-62
2022/09/02 06:29:04;;;;;;;10.38;4.85;;;;;;;19.37;54.37;100593.16;4127058;28;20046;-63
2022/09/02 06:31:10;;;;;;;7.07;4.20;;;;;;;19.37;54.69;100590.53;4096993;28;20041;-62
2022/09/02 06:33:13;;;;;;;8.60;4.15;;;;;;;19.42;54.61;100599.22;4127470;28;20038;-62
2022/09/02 06:35:17;;;;;;;7.40;4.28;;;;;;;19.43;54.41;100592.16;4109695;28;20416;-62
2022/09/02 06:37:20;;;;;;;6.60;3.88;;;;;;;19.45;54.02;100588.63;4110204;28;20050;-62
2022/09/02 06:39:25;;;;;;;5.33;3.67;;;;;;;19.48;53.79;100587.69;4092869;29;20102;-62
2022/09/02 06:41:33;;;;;;;10.55;4.78;;;;;;;19.50;54.03;100586.72;4096162;29;20362;-62
2022/09/02 06:43:39;;;;;;;10.05;4.05;;;;;;;19.54;53.67;100593.69;4095025;29;20055;-63
2022/09/02 06:46:15;;;;;;;5.40;3.42;;;;;;;19.60;53.57;100595.31;4093765;28;20058;-63
2022/09/02 06:48:19;;;;;;;8.18;4.28;;;;;;;19.65;53.61;100588.16;4103296;28;20440;-63
2022/09/02 06:50:23;;;;;;;7.65;3.60;;;;;;;19.67;53.53;100583.75;4100776;28;20498;-62
2022/09/02 06:52:29;;;;;;;8.32;3.75;;;;;;;19.83;53.02;100594.88;4125913;28;20040;-62
2022/09/02 06:54:33;;;;;;;7.40;4.20;;;;;;;19.88;52.88;100587.72;4128681;28;20117;-62
2022/09/02 06:56:50;;;;;;;7.63;4.03;;;;;;;19.91;52.39;100580.66;4127703;28;20427;-63
2022/09/02 06:58:58;;;;;;;6.25;3.25;;;;;;;19.95;51.71;100582.31;4096681;29;20086;-62
2022/09/02 07:01:20;;;;;;;7.18;3.60;;;;;;;20.04;52.47;100587.38;4094239;28;20501;-62
2022/09/02 07:05:44;;;;;;;5.47;3.22;;;;;;;20.08;52.44;100591.69;4093352;29;20516;-63
2022/09/02 07:07:48;;;;;;;7.93;5.57;;;;;;;20.13;51.96;100584.50;4093828;29;20046;-63
2022/09/02 07:09:54;;;;;;;9.43;3.00;;;;;;;20.28;48.45;100590.34;4095236;28;20047;-63
2022/09/02 07:11:59;;;;;;;3.03;2.28;;;;;;;20.26;47.94;100587.72;4126944;28;20552;-63
2022/09/02 07:14:10;;;;;;;7.85;2.67;;;;;;;20.11;49.54;100588.97;4094796;28;20043;-63
2022/09/02 07:16:14;;;;;;;7.85;3.22;;;;;;;20.17;50.05;100591.47;4093850;28;20070;-62
2022/09/02 07:18:29;;;;;;;4.40;2.45;;;;;;;20.15;49.58;100593.28;4092996;28;20073;-62
2022/09/02 07:20:32;;;;;;;4.47;2.60;;;;;;;20.22;49.40;100589.59;4107252;28;20037;-62
2022/09/02 07:22:38;;;;;;;6.07;2.67;;;;;;;20.30;46.49;100583.25;4107667;28;20509;-62
2022/09/02 07:24:42;;;;;;;2.88;1.98;;;;;;;20.31;46.63;100580.59;4087551;28;20044;-62
2022/09/02 07:26:48;;;;;;;4.10;2.00;;;;;;;20.40;45.39;100592.69;4092313;28;20126;-63
2022/09/02 07:28:57;;;;;;;3.58;2.10;;;;;;;20.27;45.61;100585.94;4089947;28;20154;-62
2022/09/02 07:31:00;;;;;;;2.42;1.75;;;;;;;20.24;47.66;100579.00;4092080;28;20067;-63
2022/09/02 07:33:04;;;;;;;5.72;2.22;;;;;;;20.31;48.35;100579.69;4096611;29;20047;-63
2022/09/02 07:35:08;;;;;;;;;;;;;;;20.39;48.21;100575.97;4124527;28;20039;-62
2022/09/02 07:37:12;;;;;;;4.20;1.80;;;;;;;20.52;47.71;100578.31;4110542;28;20021;-62
2022/09/02 07:39:18;;;;;;;7.55;2.10;;;;;;;20.60;46.62;100571.03;4095876;28;20043;-63
2022/09/02 07:41:24;;;;;;;4.97;2.05;;;;;;;20.70;46.42;100571.72;4096337;28;20158;-62
2022/09/02 07:43:32;;;;;;;4.18;2.00;;;;;;;20.81;45.66;100567.03;4128478;28;20034;-62
2022/09/02 07:45:36;;;;;;;4.40;1.80;;;;;;;20.75;45.96;100572.47;4081053;29;20054;-63
2022/09/02 07:47:40;;;;;;;2.95;2.00;;;;;;;20.71;46.99;100568.19;4125608;28;20049;-63
2022/09/02 07:49:44;;;;;;;5.90;3.33;;;;;;;20.83;47.76;100575.75;4095618;28;20061;-63
2022/09/02 07:52:08;;;;;;;4.28;2.28;;;;;;;20.79;47.43;100575.91;4092709;28;20404;-63
2022/09/02 07:54:12;;;;;;;4.22;2.15;;;;;;;20.87;47.42;100576.56;4108122;28;20048;-63
2022/09/02 07:56:16;;;;;;;4.35;1.63;;;;;;;20.99;47.15;100580.66;4095824;29;20497;-63
2022/09/02 07:58:22;;;;;;;4.45;2.00;;;;;;;21.01;47.05;100578.81;4094562;28;20635;-63
2022/09/02 08:00:27;;;;;;;5.47;2.40;;;;;;;21.08;46.90;100573.34;4093559;29;20043;-63
2022/09/02 08:02:36;;;;;;;6.53;2.53;;;;;;;21.10;46.30;100570.66;4126341;28;20404;-63
2022/09/02 08:04:39;;;;;;;5.63;2.03;;;;;;;21.09;46.47;100568.91;4111883;28;20035;-63
2022/09/02 08:06:42;;;;;;;5.78;1.85;;;;;;;21.12;46.79;100574.13;4127621;28;20038;-63
2022/09/02 08:08:46;;;;;;;4.05;1.80;;;;;;;21.27;44.38;100571.06;4112108;28;20058;-62
2022/09/02 08:10:50;;;;;;;3.38;1.60;;;;;;;21.35;43.38;100576.13;4127373;28;20053;-62
2022/09/02 08:12:53;;;;;;;3.95;1.92;;;;;;;21.34;43.53;100579.66;4094759;28;20489;-62
2022/09/02 08:14:57;;;;;;;2.60;1.63;;;;;;;21.21;44.59;100573.84;4090040;29;20042;-63
2022/09/02 08:17:02;;;;;;;7.65;1.40;;;;;;;21.28;44.62;100570.13;4096878;28;20067;-63
2022/09/02 08:19:05;;;;;;;4.53;1.70;;;;;;;21.38;44.31;100576.03;4096191;28;20035;-62
2022/09/02 08:21:08;;;;;;;2.10;1.40;;;;;;;21.28;43.87;100572.75;4093440;28;20043;-61
2022/09/02 08:23:11;;;;;;;4.82;2.08;;;;;;;21.46;42.95;100583.72;4091502;28;20134;-62
2022/09/02 08:25:35;;;;;;;5.20;1.42;;;;;;;21.39;43.43;100577.78;4094770;28;20043;-62
2022/09/02 08:27:38;;;;;;;2.30;1.50;;;;;;;21.35;43.57;100570.81;4094732;28;20054;-59
2022/09/02 08:29:41;;;;;;;2.88;1.33;;;;;;;21.34;44.12;100578.81;4093468;29;20043;-59
2022/09/02 08:31:44;;;;;;;2.47;1.63;;;;;;;21.55;43.29;100577.34;4080938;29;20357;-59
2022/09/02 08:33:51;;;;;;;4.65;1.95;;;;;;;21.58;43.59;100578.13;4092848;28;20063;-60
2022/09/02 08:35:55;;;;;;;4.00;1.52;;;;;;;21.58;43.59;100572.84;4100737;29;20043;-60
2022/09/02 08:37:58;;;;;;;3.97;1.98;;;;;;;21.68;44.12;100572.53;4101762;28;20050;-60
2022/09/02 08:40:05;;;;;;;3.30;1.40;;;;;;;21.85;43.51;100570.25;4100534;28;20043;-60
2022/09/02 08:42:17;;;;;;;5.05;1.83;;;;;;;22.06;40.67;100567.84;4100509;28;20090;-61
2022/09/02 08:44:23;;;;;;;1.83;1.38;;;;;;;21.92;41.69;100573.59;4099411;28;20047;-61
2022/09/02 08:46:31;;;;;;;3.08;1.42;;;;;;;21.86;41.62;100560.53;4099688;29;20456;-60
2022/09/02 08:48:38;;;;;;;2.63;1.45;;;;;;;21.85;42.87;100570.25;4097046;28;20047;-62
2022/09/02 08:50:45;;;;;;;2.58;1.27;;;;;;;21.92;41.84;100563.84;4095995;28;20130;-62
2022/09/02 08:53:00;;;;;;;7.32;1.77;;;;;;;22.16;41.25;100557.84;4099447;28;20133;-62
2022/09/02 08:55:07;;;;;;;4.18;1.17;;;;;;;22.08;41.13;100563.38;4094233;28;20438;-61
2022/09/02 08:57:11;;;;;;;2.80;1.60;;;;;;;22.28;40.35;100552.13;4127611;28;20484;-62
2022/09/02 08:59:14;;;;;;;3.00;1.33;;;;;;;22.18;40.64;100559.53;4092521;29;20499;-60
2022/09/02 09:01:25;;;;;;;8.18;1.40;;;;;;;22.18;40.88;100556.88;4125739;28;20042;-62
2022/09/02 09:03:33;;;;;;;4.43;1.80;;;;;;;22.22;40.43;100550.53;4095687;28;20135;-62
2022/09/02 09:05:46;;;;;;;4.57;1.50;;;;;;;22.20;41.00;100557.69;4096522;28;20476;-62
2022/09/02 09:08:03;;;;;;;7.20;1.55;;;;;;;22.33;41.41;100546.69;4090210;28;20043;-62
2022/09/02 09:10:17;;;;;;;3.42;1.55;;;;;;;22.38;40.85;100542.13;4131459;28;20571;-63
2022/09/02 09:12:35;;;;;;;6.75;1.77;;;;;;;22.47;40.79;100539.16;4100358;28;20768;-63
2022/09/02 09:14:49;;;;;;;6.50;1.50;;;;;;;22.63;40.23;100536.84;4098280;29;20130;-62
2022/09/02 09:16:57;;;;;;;4.60;1.75;;;;;;;22.89;38.95;100538.59;4095471;28;20047;-62
2022/09/02 09:19:08;;;;;;;2.28;1.23;;;;;;;22.70;39.65;100542.81;4098041;28;20070;-62
2022/09/02 09:21:13;;;;;;;3.50;1.35;;;;;;;22.94;38.66;100541.94;4098663;29;20130;-62
2022/09/02 09:23:25;;;;;;;3.85;2.03;;;;;;;23.04;38.13;100539.81;4097992;28;20123;-62
2022/09/02 09:25:29;;;;;;;7.38;1.48;;;;;;;23.03;38.20;100543.41;4097641;29;20599;-62
2022/09/02 09:27:32;;;;;;;5.78;1.63;;;;;;;22.99;37.64;100539.97;4110369;28;20046;-62
2022/09/02 09:29:35;;;;;;;1.60;1.20;;;;;;;23.14;36.87;100540.38;4096853;29;20039;-62
2022/09/02 09:31:41;;;;;;;2.03;1.13;;;;;;;23.04;36.45;100531.00;4097824;28;20053;-61
2022/09/02 09:34:01;;;;;;;1.83;1.30;;;;;;;23.16;36.55;100536.75;4097273;28;20508;-61
2022/09/02 09:36:04;;;;;;;4.63;1.08;;;;;;;23.14;36.32;100533.31;4099070;28;20070;-60
2022/09/02 09:38:12;;;;;;;3.55;1.48;;;;;;;23.24;36.18;100532.97;4098707;28;20401;-60
2022/09/02 09:40:25;;;;;;;1.83;1.20;;;;;;;23.32;36.31;100528.25;4096496;28;20035;-60
2022/09/02 09:42:34;;;;;;;1.60;1.15;;;;;;;23.20;36.39;100536.63;4093302;28;20039;-61
2022/09/02 09:44:44;;;;;;;3.80;1.08;;;;;;;23.30;34.45;100533.56;4126775;28;20043;-60
2022/09/02 09:46:58;;;;;;;2.70;1.40;;;;;;;23.31;34.73;100526.50;4098901;28;20047;-60
2022/09/02 09:49:01;;;;;;;2.78;1.40;;;;;;;23.40;34.96;100530.59;4098699;29;20047;-60
2022/09/02 09:51:17;;;;;;;1.67;1.30;;;;;;;23.33;34.93;100522.88;4127725;28;20046;-61